createdAt,value
2023-03-16T00:00:28.913Z,88.32
2023-03-16T00:03:20.616Z,88.43
2023-03-16T00:06:06.361Z,88.64
2023-03-16T00:08:52.189Z,88.20
2023-03-16T00:11:37.653Z,88.77
2023-03-16T00:14:23.031Z,89.19
2023-03-16T00:17:08.724Z,89.08
2023-03-16T00:19:57.174Z,89.24
2023-03-16T00:22:42.522Z,89.31
2023-03-16T00:25:28.000Z,88.99
2023-03-16T00:28:14.082Z,89.42
2023-03-16T00:30:59.480Z,89.23
2023-03-16T00:33:45.144Z,89.04
2023-03-16T00:36:33.861Z,89.26
2023-03-16T00:39:19.116Z,89.13
2023-03-16T00:42:05.871Z,89.41
2023-03-16T00:44:57.098Z,89.48
2023-03-16T00:47:42.519Z,89.53
2023-03-16T00:50:28.715Z,89.35
2023-03-16T00:53:14.232Z,89.79
2023-03-16T00:56:02.943Z,89.64
2023-03-16T00:58:49.441Z,89.85
2023-03-16T01:01:35.142Z,89.73
2023-03-16T01:04:21.901Z,89.58
2023-03-16T01:07:11.017Z,89.45
2023-03-16T01:09:58.219Z,89.60
2023-03-16T01:12:45.486Z,89.13
2023-03-16T01:15:31.133Z,89.30
2023-03-16T01:18:16.564Z,88.65
2023-03-16T01:21:10.413Z,88.66
2023-03-16T01:23:56.109Z,88.81
2023-03-16T01:26:41.654Z,88.53
2023-03-16T01:29:27.246Z,88.12
2023-03-16T01:32:15.029Z,88.40
2023-03-16T01:35:01.220Z,88.78
2023-03-16T01:37:46.801Z,88.67
2023-03-16T01:40:35.083Z,88.95
2023-03-16T01:43:24.081Z,89.50
2023-03-16T01:46:24.900Z,89.57
2023-03-16T01:49:17.902Z,89.12
2023-03-16T01:52:10.099Z,88.48
2023-03-16T01:55:09.027Z,89.03
2023-03-16T01:57:54.919Z,88.88
2023-03-16T02:00:42.098Z,88.63
2023-03-16T02:03:36.512Z,88.40
2023-03-16T02:06:34.481Z,88.51
2023-03-16T02:09:20.537Z,88.42
2023-03-16T02:12:07.797Z,88.39
2023-03-16T02:14:58.712Z,88.41
2023-03-16T02:17:46.232Z,88.25
2023-03-16T02:21:13.752Z,88.57
2023-03-16T02:24:02.394Z,88.37
2023-03-16T02:26:55.074Z,88.80
2023-03-16T02:29:56.582Z,88.36
2023-03-16T02:32:47.128Z,88.64
2023-03-16T02:35:33.758Z,88.51
2023-03-16T02:38:20.829Z,88.47
2023-03-16T02:41:20.974Z,88.56
2023-03-16T02:44:16.692Z,88.85
2023-03-16T02:47:20.940Z,88.30
2023-03-16T02:50:09.968Z,88.73
2023-03-16T02:52:55.573Z,87.78
2023-03-16T02:55:41.702Z,88.31
2023-03-16T02:58:26.816Z,87.61
2023-03-16T03:01:12.221Z,87.46
2023-03-16T03:03:58.582Z,87.92
2023-03-16T03:06:44.239Z,87.83
2023-03-16T03:09:32.276Z,87.84
2023-03-16T03:12:17.830Z,87.56
2023-03-16T03:15:03.938Z,87.51
2023-03-16T03:17:56.535Z,88.23
2023-03-16T03:20:42.270Z,88.09
2023-03-16T03:23:28.846Z,88.39
2023-03-16T03:26:15.429Z,88.41
2023-03-16T03:29:02.538Z,88.78
2023-03-16T03:31:47.991Z,88.63
2023-03-16T03:34:34.233Z,88.63
2023-03-16T03:37:19.979Z,88.14
2023-03-16T03:40:06.532Z,88.72
2023-03-16T03:42:52.072Z,88.36
2023-03-16T03:45:37.611Z,88.42
2023-03-16T03:48:24.259Z,88.46
2023-03-16T03:51:10.001Z,87.87
2023-03-16T03:54:04.174Z,87.43
2023-03-16T03:57:15.729Z,86.87
2023-03-16T04:00:01.252Z,86.95
2023-03-16T04:02:58.853Z,86.51
2023-03-16T04:05:51.948Z,85.84
2023-03-16T04:08:37.679Z,85.62
2023-03-16T04:11:27.103Z,85.28
2023-03-16T04:14:13.008Z,85.17
2023-03-16T04:16:59.453Z,84.73
2023-03-16T04:19:45.358Z,85.39
2023-03-16T04:22:33.973Z,84.98
2023-03-16T04:25:19.631Z,84.67
2023-03-16T04:28:08.238Z,84.01
2023-03-16T04:31:01.933Z,84.37
2023-03-16T04:33:56.186Z,84.57
2023-03-16T04:36:42.616Z,84.65
2023-03-16T04:39:29.495Z,84.19
2023-03-16T04:42:15.234Z,84.47
2023-03-16T04:45:01.114Z,84.09
2023-03-16T04:47:46.573Z,83.63
2023-03-16T04:50:32.735Z,83.49
2023-03-16T04:53:24.330Z,83.67
2023-03-16T04:56:18.498Z,83.48
2023-03-16T04:59:07.849Z,83.47
2023-03-16T05:02:23.013Z,84.04
2023-03-16T05:05:09.088Z,84.28
2023-03-16T05:07:57.309Z,83.79
2023-03-16T05:10:47.925Z,84.25
2023-03-16T05:13:34.140Z,83.74
2023-03-16T05:16:19.725Z,83.84
2023-03-16T05:19:05.501Z,83.86
2023-03-16T05:21:53.291Z,84.04
2023-03-16T05:24:39.031Z,83.35
2023-03-16T05:27:24.821Z,83.58
2023-03-16T05:30:13.335Z,84.16
2023-03-16T05:32:59.152Z,84.11
2023-03-16T05:35:51.455Z,84.49
2023-03-16T05:38:39.516Z,84.12
2023-03-16T05:41:28.497Z,84.54
2023-03-16T05:44:29.648Z,84.54
2023-03-16T05:47:37.798Z,83.50
2023-03-16T05:50:26.608Z,83.73
2023-03-16T05:53:12.122Z,83.90
2023-03-16T05:56:00.112Z,84.07
2023-03-16T05:58:46.051Z,83.96
2023-03-16T06:01:31.480Z,84.01
2023-03-16T06:04:17.136Z,83.98
2023-03-16T06:07:02.968Z,84.10
2023-03-16T06:09:49.362Z,84.54
2023-03-16T06:12:35.263Z,84.10
2023-03-16T06:15:25.043Z,83.65
2023-03-16T06:18:11.403Z,83.84
2023-03-16T06:20:57.452Z,83.71
2023-03-16T06:23:43.837Z,84.40
2023-03-16T06:26:29.709Z,84.06
2023-03-16T06:29:15.408Z,84.16
2023-03-16T06:32:01.304Z,84.05
2023-03-16T06:34:48.072Z,83.82
2023-03-16T06:37:34.271Z,84.67
2023-03-16T06:40:25.300Z,84.30
2023-03-16T06:43:10.821Z,84.17
2023-03-16T06:45:56.336Z,83.71
2023-03-16T06:48:42.361Z,84.01
2023-03-16T06:51:28.709Z,83.86
2023-03-16T06:54:14.787Z,84.16
2023-03-16T06:57:01.531Z,84.05
2023-03-16T06:59:47.064Z,83.99
2023-03-16T07:02:35.723Z,83.37
2023-03-16T07:05:22.088Z,83.83
2023-03-16T07:08:10.207Z,83.54
2023-03-16T07:10:55.692Z,83.81
2023-03-16T07:13:41.813Z,83.73
2023-03-16T07:16:28.550Z,84.44
2023-03-16T07:19:16.712Z,84.43
2023-03-16T07:22:02.921Z,84.51
2023-03-16T07:24:57.227Z,85.00
2023-03-16T07:27:46.660Z,84.45
2023-03-16T07:30:37.585Z,84.93
2023-03-16T07:33:23.570Z,84.84
2023-03-16T07:36:10.698Z,85.03
2023-03-16T07:39:01.956Z,85.62
2023-03-16T07:41:47.640Z,84.88
2023-03-16T07:44:36.046Z,85.26
2023-03-16T07:47:23.348Z,84.94
2023-03-16T07:50:16.962Z,83.98
2023-03-16T07:53:05.286Z,83.58
2023-03-16T07:55:53.812Z,83.51
2023-03-16T07:58:39.735Z,83.61
2023-03-16T08:01:25.194Z,83.08
2023-03-16T08:04:12.381Z,83.00
2023-03-16T08:07:01.123Z,81.92
2023-03-16T08:09:59.978Z,82.47
2023-03-16T08:12:52.371Z,81.16
2023-03-16T08:15:38.369Z,81.59
2023-03-16T08:18:30.355Z,81.76
2023-03-16T08:21:17.359Z,81.97
2023-03-16T08:24:02.844Z,82.02
2023-03-16T08:26:48.138Z,81.45
2023-03-16T08:29:34.596Z,81.19
2023-03-16T08:32:23.995Z,81.20
2023-03-16T08:35:14.002Z,80.58
2023-03-16T08:37:59.866Z,80.75
2023-03-16T08:40:48.575Z,80.73
2023-03-16T08:43:37.515Z,80.91
2023-03-16T08:46:24.281Z,80.09
2023-03-16T08:49:14.964Z,79.26
2023-03-16T08:52:03.212Z,77.75
2023-03-16T08:55:02.064Z,78.12
2023-03-16T08:57:49.698Z,77.49
2023-03-16T09:00:35.263Z,77.82
2023-03-16T09:03:20.720Z,77.65
2023-03-16T09:06:09.822Z,75.85
2023-03-16T09:08:56.240Z,77.16
2023-03-16T09:11:42.215Z,77.01
2023-03-16T09:14:27.937Z,76.54
2023-03-16T09:17:13.645Z,75.81
2023-03-16T09:20:11.567Z,75.03
2023-03-16T09:23:05.093Z,73.12
2023-03-16T09:25:51.138Z,75.03
2023-03-16T09:28:38.926Z,75.06
2023-03-16T09:31:24.564Z,72.01
2023-03-16T09:34:10.610Z,72.00
2023-03-16T09:36:56.478Z,70.58
2023-03-16T09:39:42.151Z,70.54
2023-03-16T09:42:43.873Z,72.55
2023-03-16T09:45:36.094Z,72.14
2023-03-16T09:48:22.132Z,72.75
2023-03-16T09:51:23.043Z,72.35
2023-03-16T09:54:26.580Z,72.13
2023-03-16T09:57:18.272Z,67.25
2023-03-16T10:00:42.885Z,66.67
2023-03-16T10:03:52.227Z,67.30
2023-03-16T10:06:58.854Z,64.76
2023-03-16T10:10:14.818Z,61.98
2023-03-16T10:13:02.352Z,57.79
2023-03-16T10:15:49.480Z,59.11
2023-03-16T10:18:42.882Z,57.43
2023-03-16T10:21:33.351Z,60.09
2023-03-16T10:24:41.329Z,60.68
2023-03-16T10:27:31.511Z,58.59
2023-03-16T10:30:31.170Z,58.62
2023-03-16T10:33:26.563Z,59.95
2023-03-16T10:36:26.188Z,58.01
2023-03-16T10:39:14.550Z,57.38
2023-03-16T10:42:00.322Z,59.06
2023-03-16T10:45:01.030Z,58.87
2023-03-16T10:47:47.496Z,57.28
2023-03-16T10:50:34.249Z,56.51
2023-03-16T10:53:29.978Z,55.51
2023-03-16T10:56:25.464Z,54.75
2023-03-16T10:59:35.215Z,54.89
2023-03-16T11:02:25.112Z,52.88
2023-03-16T11:05:24.793Z,52.93
2023-03-16T11:08:20.425Z,52.95
2023-03-16T11:11:32.631Z,51.06
2023-03-16T11:14:26.073Z,50.55
2023-03-16T11:17:36.493Z,50.57
2023-03-16T11:20:26.538Z,51.77
2023-03-16T11:23:18.232Z,50.10
2023-03-16T11:26:11.869Z,51.31
2023-03-16T11:29:09.719Z,51.94
2023-03-16T11:32:00.888Z,52.33
2023-03-16T11:34:48.531Z,52.10
2023-03-16T11:37:55.623Z,50.24
2023-03-16T11:40:47.521Z,52.22
2023-03-16T11:43:49.461Z,49.54
2023-03-16T11:46:52.237Z,49.46
2023-03-16T11:49:56.892Z,50.89
2023-03-16T11:53:05.366Z,51.39
2023-03-16T11:55:57.197Z,51.35
2023-03-16T11:58:49.305Z,53.28
2023-03-16T12:02:03.744Z,52.40
2023-03-16T12:04:55.406Z,52.04
2023-03-16T12:08:19.035Z,53.56
2023-03-16T12:11:13.072Z,53.50
2023-03-16T12:14:24.433Z,54.10
2023-03-16T12:17:20.641Z,53.73
2023-03-16T12:20:18.700Z,49.48
2023-03-16T12:23:13.342Z,48.55
2023-03-16T12:26:00.874Z,51.18
2023-03-16T12:28:48.294Z,48.82
2023-03-16T12:32:09.148Z,49.97
2023-03-16T12:35:19.600Z,48.75
2023-03-16T12:38:47.618Z,49.23
2023-03-16T12:41:52.460Z,48.26
2023-03-16T12:44:55.405Z,47.89
2023-03-16T12:48:04.210Z,47.57
2023-03-16T12:50:52.264Z,48.50
2023-03-16T12:53:45.461Z,48.85
2023-03-16T12:56:43.371Z,47.45
2023-03-16T12:59:36.724Z,48.35
2023-03-16T13:02:34.736Z,48.95
2023-03-16T13:05:32.884Z,49.95
2023-03-16T13:08:21.195Z,48.63
2023-03-16T13:11:09.676Z,48.62
2023-03-16T13:14:01.089Z,48.57
2023-03-16T13:16:47.884Z,48.52
2023-03-16T13:19:37.808Z,48.83
2023-03-16T13:22:23.351Z,49.48
2023-03-16T13:25:16.597Z,49.92
2023-03-16T13:28:02.329Z,50.71
2023-03-16T13:30:49.175Z,49.42
2023-03-16T13:33:40.816Z,48.49
2023-03-16T13:36:29.195Z,48.72
2023-03-16T13:39:27.271Z,47.03
2023-03-16T13:42:18.761Z,47.88
2023-03-16T13:45:15.891Z,47.28
2023-03-16T13:48:05.639Z,47.75
2023-03-16T13:50:53.937Z,47.48
2023-03-16T13:53:42.757Z,48.10
2023-03-16T13:56:29.515Z,49.49
2023-03-16T13:59:15.920Z,50.19
2023-03-16T14:02:02.195Z,50.60
2023-03-16T14:04:48.061Z,49.60
2023-03-16T14:07:38.468Z,49.98
2023-03-16T14:10:29.662Z,50.53
2023-03-16T14:13:32.985Z,50.81
2023-03-16T14:16:20.068Z,50.17
2023-03-16T14:19:19.654Z,51.23
2023-03-16T14:22:06.731Z,48.87
2023-03-16T14:24:59.357Z,49.18
2023-03-16T14:27:46.832Z,48.93
2023-03-16T14:30:33.086Z,49.00
2023-03-16T14:33:41.323Z,48.97
2023-03-16T14:36:39.814Z,49.17
2023-03-16T14:39:29.047Z,50.08
2023-03-16T14:42:31.046Z,49.91
2023-03-16T14:45:17.629Z,50.24
2023-03-16T14:48:06.844Z,51.12
2023-03-16T14:50:58.588Z,51.41
2023-03-16T14:53:44.766Z,49.08
2023-03-16T14:56:34.905Z,48.07
2023-03-16T14:59:21.801Z,47.47
2023-03-16T15:02:16.363Z,48.76
2023-03-16T15:05:03.087Z,49.02
2023-03-16T15:07:54.753Z,48.98
2023-03-16T15:10:40.774Z,49.93
2023-03-16T15:13:52.877Z,48.20
2023-03-16T15:16:38.637Z,47.52
2023-03-16T15:19:24.074Z,48.09
2023-03-16T15:22:12.525Z,49.01
2023-03-16T15:25:00.053Z,48.31
2023-03-16T15:27:45.516Z,47.38
2023-03-16T15:30:32.232Z,48.14
2023-03-16T15:33:18.020Z,45.99
2023-03-16T15:36:14.892Z,47.05
2023-03-16T15:39:02.126Z,47.06
2023-03-16T15:41:48.214Z,48.26
2023-03-16T15:44:33.762Z,47.43
2023-03-16T15:47:19.328Z,47.79
2023-03-16T15:50:06.019Z,48.26
2023-03-16T15:52:58.020Z,47.44
2023-03-16T15:55:47.187Z,47.70
2023-03-16T15:58:35.040Z,47.73
2023-03-16T16:01:23.517Z,48.29
2023-03-16T16:04:15.557Z,48.00
2023-03-16T16:07:02.866Z,47.37
2023-03-16T16:09:48.884Z,47.14
2023-03-16T16:12:34.702Z,47.42
2023-03-16T16:15:30.304Z,47.17
2023-03-16T16:18:32.004Z,47.56
2023-03-16T16:21:23.149Z,47.53
2023-03-16T16:24:10.978Z,47.94
2023-03-16T16:26:56.735Z,47.29
2023-03-16T16:29:42.251Z,47.16
2023-03-16T16:32:27.728Z,47.36
2023-03-16T16:35:19.646Z,47.15
2023-03-16T16:38:05.392Z,47.82
2023-03-16T16:40:53.335Z,48.62
2023-03-16T16:43:46.659Z,48.86
2023-03-16T16:48:32.454Z,50.31
2023-03-16T16:51:26.752Z,50.78
2023-03-16T16:54:18.304Z,51.12
2023-03-16T16:57:05.689Z,51.49
2023-03-16T16:59:51.592Z,51.52
2023-03-16T17:02:51.315Z,51.33
2023-03-16T17:05:37.323Z,51.23
2023-03-16T17:08:23.648Z,51.36
2023-03-16T17:11:16.914Z,51.47
2023-03-16T17:14:04.948Z,51.13
2023-03-16T17:16:51.868Z,51.86
2023-03-16T17:19:38.759Z,52.16
2023-03-16T17:22:29.685Z,52.56
2023-03-16T17:25:16.679Z,52.63
2023-03-16T17:28:02.578Z,53.15
2023-03-16T17:30:48.955Z,53.38
2023-03-16T17:33:37.588Z,53.65
2023-03-16T17:36:23.498Z,53.52
2023-03-16T17:39:36.943Z,53.58
2023-03-16T17:42:23.918Z,53.74
2023-03-16T17:45:18.615Z,53.60
2023-03-16T17:48:11.020Z,53.19
2023-03-16T17:50:56.799Z,53.45
2023-03-16T17:53:44.303Z,53.57
2023-03-16T17:56:33.053Z,53.74
2023-03-16T17:59:21.246Z,54.57
2023-03-16T18:02:56.649Z,54.71
2023-03-16T18:05:44.054Z,54.65
2023-03-16T18:08:30.582Z,54.66
2023-03-16T18:11:23.064Z,54.36
2023-03-16T18:14:16.599Z,54.91
2023-03-16T18:17:07.778Z,54.79
2023-03-16T18:19:54.097Z,55.37
2023-03-16T18:22:39.926Z,55.43
2023-03-16T18:25:32.576Z,55.48
2023-03-16T18:28:19.725Z,55.44
2023-03-16T18:31:07.777Z,55.82
2023-03-16T18:33:59.713Z,55.75
2023-03-16T18:36:45.778Z,56.03
2023-03-16T18:39:31.867Z,55.72
2023-03-16T18:42:20.077Z,56.15
2023-03-16T18:45:06.803Z,56.20
2023-03-16T18:47:54.187Z,56.24
2023-03-16T18:50:43.663Z,56.09
2023-03-16T18:53:29.778Z,56.37
2023-03-16T18:56:22.325Z,56.57
2023-03-16T18:59:09.740Z,57.19
2023-03-16T19:01:58.414Z,57.42
2023-03-16T19:04:45.106Z,57.26
2023-03-16T19:07:40.059Z,57.24
2023-03-16T19:10:28.922Z,58.13
2023-03-16T19:13:21.239Z,57.60
2023-03-16T19:16:16.697Z,57.96
2023-03-16T19:19:02.957Z,58.03
2023-03-16T19:21:51.060Z,58.49
2023-03-16T19:24:54.341Z,58.76
2023-03-16T19:27:39.988Z,59.54
2023-03-16T19:30:29.740Z,58.82
2023-03-16T19:33:25.897Z,58.54
2023-03-16T19:36:32.509Z,59.23
2023-03-16T19:39:18.352Z,59.60
2023-03-16T19:42:04.448Z,59.44
2023-03-16T19:44:51.338Z,59.54
2023-03-16T19:47:37.134Z,58.98
2023-03-16T19:50:24.946Z,58.97
2023-03-16T19:53:19.077Z,59.14
2023-03-16T19:56:05.226Z,59.06
2023-03-16T19:58:53.645Z,59.22
2023-03-16T20:01:39.860Z,59.07
2023-03-16T20:04:27.532Z,58.83
2023-03-16T20:07:17.161Z,58.34
2023-03-16T20:10:02.722Z,58.58
2023-03-16T20:12:51.413Z,59.19
2023-03-16T20:15:37.622Z,59.37
2023-03-16T20:18:23.695Z,59.73
2023-03-16T20:21:15.407Z,59.39
2023-03-16T20:24:01.637Z,59.18
2023-03-16T20:26:51.406Z,59.68
2023-03-16T20:29:37.655Z,59.92
2023-03-16T20:32:56.595Z,60.30
2023-03-16T20:35:41.888Z,59.83
2023-03-16T20:38:27.276Z,59.40
2023-03-16T20:41:28.542Z,59.95
2023-03-16T20:44:26.828Z,60.47
2023-03-16T20:47:19.350Z,61.06
2023-03-16T20:50:06.205Z,61.38
2023-03-16T20:52:53.641Z,61.83
2023-03-16T20:55:41.087Z,61.93
2023-03-16T20:58:36.025Z,61.75
2023-03-16T21:01:24.737Z,62.12
2023-03-16T21:04:21.063Z,62.06
2023-03-16T21:07:07.005Z,61.66
2023-03-16T21:09:52.813Z,61.86
2023-03-16T21:12:44.326Z,61.85
2023-03-16T21:15:32.281Z,61.47
2023-03-16T21:18:20.667Z,61.83
2023-03-16T21:21:06.530Z,61.37
2023-03-16T21:23:52.275Z,60.96
2023-03-16T21:26:40.124Z,61.53
2023-03-16T21:29:26.302Z,62.10
2023-03-16T21:32:24.290Z,61.99
2023-03-16T21:35:15.635Z,62.79
2023-03-16T21:38:07.376Z,62.63
2023-03-16T21:40:52.887Z,62.42
2023-03-16T21:43:39.584Z,61.78
2023-03-16T21:46:26.453Z,62.62
2023-03-16T21:49:12.145Z,62.67
2023-03-16T21:51:57.854Z,62.08
2023-03-16T21:54:43.231Z,62.16
2023-03-16T21:57:28.856Z,62.50
2023-03-16T22:00:29.501Z,62.50
2023-03-16T22:03:50.400Z,62.93
2023-03-16T22:06:37.685Z,63.33
2023-03-16T22:09:24.958Z,64.08
2023-03-16T22:12:11.801Z,64.03
2023-03-16T22:14:57.423Z,65.04
2023-03-16T22:17:42.888Z,65.71
2023-03-16T22:20:28.876Z,66.43
2023-03-16T22:23:30.209Z,66.17
2023-03-16T22:26:19.201Z,66.21
2023-03-16T22:29:18.071Z,66.69
2023-03-16T22:32:08.512Z,66.37
2023-03-16T22:34:56.634Z,66.87
2023-03-16T22:37:42.286Z,66.94
2023-03-16T22:40:35.574Z,66.70
2023-03-16T22:43:35.344Z,66.17
2023-03-16T22:46:24.004Z,66.34
2023-03-16T22:49:20.176Z,67.15
2023-03-16T22:52:06.207Z,67.22
2023-03-16T22:54:51.420Z,66.79
2023-03-16T22:57:37.044Z,67.29
2023-03-16T23:00:23.087Z,67.37
2023-03-16T23:03:20.869Z,66.91
2023-03-16T23:06:09.077Z,66.68
2023-03-16T23:08:55.541Z,66.13
2023-03-16T23:11:43.590Z,66.72
2023-03-16T23:14:32.862Z,66.27
2023-03-16T23:17:22.249Z,66.60
2023-03-16T23:20:32.700Z,66.77
2023-03-16T23:23:19.376Z,66.64
2023-03-16T23:26:14.689Z,66.71
2023-03-16T23:29:00.685Z,67.02
2023-03-16T23:31:47.524Z,66.14
2023-03-16T23:34:32.876Z,66.49
2023-03-16T23:37:18.344Z,66.23
2023-03-16T23:40:04.233Z,66.66
2023-03-16T23:42:50.138Z,66.80
2023-03-16T23:45:44.750Z,66.79
2023-03-16T23:48:31.687Z,66.38
2023-03-16T23:51:46.894Z,67.14
2023-03-16T23:54:32.803Z,66.77
2023-03-16T23:57:18.203Z,66.88
